createdAt,value
2019-04-07T00:01:05.145Z,99.90
2019-04-07T00:02:41.346Z,99.90
2019-04-07T00:04:17.677Z,99.90
2019-04-07T00:05:53.974Z,99.90
2019-04-07T00:07:30.366Z,99.90
2019-04-07T00:09:08.279Z,99.90
2019-04-07T00:10:44.694Z,99.90
2019-04-07T00:12:21.524Z,99.90
2019-04-07T00:13:57.915Z,99.90
2019-04-07T00:15:34.484Z,99.90
2019-04-07T00:17:10.874Z,99.90
2019-04-07T00:18:47.229Z,99.90
2019-04-07T00:20:23.720Z,99.90
2019-04-07T00:22:00.051Z,99.90
2019-04-07T00:23:36.378Z,99.90
2019-04-07T00:25:13.129Z,99.90
2019-04-07T00:26:49.647Z,99.90
2019-04-07T00:28:25.884Z,99.90
2019-04-07T00:30:02.185Z,99.90
2019-04-07T00:31:38.642Z,99.90
2019-04-07T00:33:15.171Z,99.90
2019-04-07T00:34:51.827Z,99.90
2019-04-07T00:36:27.962Z,99.90
2019-04-07T00:38:04.016Z,99.90
2019-04-07T00:39:40.108Z,99.90
2019-04-07T00:41:16.744Z,99.90
2019-04-07T00:42:53.415Z,99.90
2019-04-07T00:44:31.156Z,99.90
2019-04-07T00:46:07.695Z,99.90
2019-04-07T00:47:44.122Z,99.90
2019-04-07T00:49:20.614Z,99.90
2019-04-07T00:50:57.072Z,99.90
2019-04-07T00:52:33.748Z,99.90
2019-04-07T00:54:10.004Z,99.90
2019-04-07T00:55:46.526Z,99.90
2019-04-07T00:57:22.683Z,99.90
2019-04-07T00:58:58.882Z,99.90
2019-04-07T01:00:37.328Z,99.90
2019-04-07T01:02:15.726Z,99.90
2019-04-07T01:03:53.461Z,99.90
2019-04-07T01:05:38.065Z,99.90
2019-04-07T01:07:08.113Z,99.90
2019-04-07T01:08:44.803Z,99.90
2019-04-07T01:10:21.644Z,99.90
2019-04-07T01:11:58.560Z,99.90
2019-04-07T01:13:35.253Z,99.90
2019-04-07T01:15:11.825Z,99.90
2019-04-07T01:16:48.921Z,99.90
2019-04-07T01:18:26.800Z,99.90
2019-04-07T01:20:04.101Z,99.90
2019-04-07T01:21:40.468Z,99.90
2019-04-07T01:23:17.031Z,99.90
2019-04-07T01:24:53.385Z,99.90
2019-04-07T01:26:29.749Z,99.90
2019-04-07T01:28:06.654Z,99.90
2019-04-07T01:29:43.190Z,99.90
2019-04-07T01:31:19.781Z,99.90
2019-04-07T01:32:56.336Z,99.90
2019-04-07T01:34:32.803Z,99.90
2019-04-07T01:36:09.499Z,99.90
2019-04-07T01:37:45.991Z,99.90
2019-04-07T01:39:22.216Z,99.90
2019-04-07T01:41:00.891Z,99.90
2019-04-07T01:42:42.458Z,99.90
2019-04-07T01:44:21.514Z,99.90
2019-04-07T01:46:02.221Z,99.90
2019-04-07T01:47:40.077Z,99.90
2019-04-07T01:49:27.997Z,99.90
2019-04-07T01:51:15.758Z,99.90
2019-04-07T01:53:07.390Z,99.90
2019-04-07T01:54:45.348Z,99.90
2019-04-07T01:56:27.267Z,99.90
2019-04-07T01:58:06.193Z,99.90
2019-04-07T01:59:59.934Z,99.70
2019-04-07T02:01:43.909Z,99.90
2019-04-07T02:03:35.782Z,99.60
2019-04-07T02:05:30.080Z,99.60
2019-04-07T02:07:10.833Z,99.80
2019-04-07T02:08:58.273Z,99.80
2019-04-07T02:10:44.469Z,99.70
2019-04-07T02:12:31.371Z,99.80
2019-04-07T02:14:10.016Z,99.50
2019-04-07T02:15:48.242Z,99.50
2019-04-07T02:17:35.206Z,99.60
2019-04-07T02:19:13.002Z,99.50
2019-04-07T02:21:03.354Z,99.60
2019-04-07T02:22:47.024Z,99.40
2019-04-07T02:24:31.165Z,99.50
2019-04-07T02:26:09.131Z,99.70
2019-04-07T02:27:53.296Z,99.80
2019-04-07T02:29:31.104Z,99.90
2019-04-07T02:31:19.141Z,99.90
2019-04-07T02:32:55.252Z,99.80
2019-04-07T02:34:31.247Z,99.90
2019-04-07T02:36:21.325Z,99.90
2019-04-07T02:37:52.752Z,99.90
2019-04-07T02:39:40.583Z,99.90
2019-04-07T02:41:34.526Z,99.90
2019-04-07T02:43:29.066Z,99.90
2019-04-07T02:45:17.093Z,99.90
2019-04-07T02:46:59.450Z,99.90
2019-04-07T02:48:54.405Z,99.90
2019-04-07T02:50:38.489Z,99.90
2019-04-07T02:52:22.953Z,99.90
2019-04-07T02:54:11.550Z,99.90
2019-04-07T02:55:53.695Z,99.90
2019-04-07T02:57:40.526Z,99.90
2019-04-07T02:59:40.104Z,99.90
2019-04-07T03:01:18.546Z,99.90
2019-04-07T03:03:11.849Z,99.90
2019-04-07T03:05:06.654Z,99.90
2019-04-07T03:06:54.760Z,99.90
2019-04-07T03:08:31.082Z,99.90
2019-04-07T03:10:22.805Z,99.90
2019-04-07T03:12:01.680Z,99.90
2019-04-07T03:13:52.606Z,99.90
2019-04-07T03:15:46.969Z,99.90
2019-04-07T03:17:31.738Z,99.90
2019-04-07T03:19:09.853Z,99.90
2019-04-07T03:20:47.724Z,99.90
2019-04-07T03:22:25.823Z,99.90
2019-04-07T03:24:02.017Z,99.90
2019-04-07T03:25:46.936Z,99.90
2019-04-07T03:27:36.189Z,99.90
2019-04-07T03:29:31.122Z,99.90
2019-04-07T03:31:19.989Z,99.90
2019-04-07T03:33:00.189Z,99.90
2019-04-07T03:34:54.103Z,99.90
2019-04-07T03:37:01.487Z,99.90
2019-04-07T03:38:15.471Z,99.90
2019-04-07T03:40:00.922Z,99.90
2019-04-07T03:41:39.989Z,99.90
2019-04-07T03:43:24.023Z,99.90
2019-04-07T03:45:02.880Z,99.90
2019-04-07T03:46:41.630Z,99.90
2019-04-07T03:48:23.030Z,99.90
2019-04-07T03:50:01.527Z,99.90
2019-04-07T03:51:44.037Z,99.90
2019-04-07T03:53:24.958Z,99.90
2019-04-07T03:55:21.350Z,99.90
2019-04-07T03:57:04.940Z,99.90
2019-04-07T03:58:46.089Z,99.90
2019-04-07T04:01:01.119Z,99.90
2019-04-07T04:02:52.623Z,99.90
2019-04-07T04:04:37.262Z,99.90
2019-04-07T04:06:32.285Z,99.90
2019-04-07T04:08:19.495Z,99.90
2019-04-07T04:10:03.409Z,99.90
2019-04-07T04:11:43.848Z,99.90
2019-04-07T04:13:23.167Z,99.90
2019-04-07T04:15:13.421Z,99.90
2019-04-07T04:16:51.163Z,99.90
2019-04-07T04:18:28.753Z,99.90
2019-04-07T04:20:08.341Z,99.90
2019-04-07T04:21:45.552Z,99.90
2019-04-07T04:23:24.316Z,99.90
2019-04-07T04:25:01.019Z,99.90
2019-04-07T04:26:37.955Z,99.90
2019-04-07T04:28:14.373Z,99.90
2019-04-07T04:29:52.070Z,99.90
2019-04-07T04:31:29.410Z,99.90
2019-04-07T04:33:06.281Z,99.90
2019-04-07T04:34:43.215Z,99.90
2019-04-07T04:36:19.616Z,99.90
2019-04-07T04:37:56.578Z,99.90
2019-04-07T04:39:33.500Z,99.90
2019-04-07T04:41:11.245Z,99.90
2019-04-07T04:42:48.504Z,99.90
2019-04-07T04:44:25.676Z,99.90
2019-04-07T04:46:02.109Z,99.90
2019-04-07T04:47:39.374Z,99.90
2019-04-07T04:49:15.654Z,99.90
2019-04-07T04:50:52.363Z,99.90
2019-04-07T04:52:28.553Z,99.90
2019-04-07T04:54:05.198Z,99.90
2019-04-07T04:55:41.382Z,99.90
2019-04-07T04:57:17.817Z,99.90
2019-04-07T04:58:54.321Z,99.90
2019-04-07T05:00:32.084Z,99.90
2019-04-07T05:02:08.983Z,99.90
2019-04-07T05:03:45.316Z,99.90
2019-04-07T05:05:22.946Z,99.90
2019-04-07T05:06:59.485Z,99.90
2019-04-07T05:08:35.978Z,99.90
2019-04-07T05:10:13.321Z,99.90
2019-04-07T05:11:49.671Z,99.90
2019-04-07T05:13:26.025Z,99.90
2019-04-07T05:15:02.222Z,99.90
2019-04-07T05:16:38.823Z,99.90
2019-04-07T05:18:15.418Z,99.90
2019-04-07T05:19:51.293Z,99.90
2019-04-07T05:21:28.219Z,99.90
2019-04-07T05:23:05.272Z,99.90
2019-04-07T05:24:41.415Z,99.90
2019-04-07T05:26:17.682Z,99.90
2019-04-07T05:27:53.853Z,99.90
2019-04-07T05:29:30.253Z,99.90
2019-04-07T05:31:07.334Z,99.90
2019-04-07T05:32:44.329Z,99.90
2019-04-07T05:34:22.171Z,99.90
2019-04-07T05:36:00.488Z,99.90
2019-04-07T05:37:36.891Z,99.90
2019-04-07T05:39:13.335Z,99.90
2019-04-07T05:40:50.051Z,99.90
2019-04-07T05:42:26.403Z,99.90
2019-04-07T05:44:03.452Z,99.90
2019-04-07T05:45:40.014Z,99.90
2019-04-07T05:47:16.510Z,99.80
2019-04-07T05:48:53.149Z,99.50
2019-04-07T05:50:29.675Z,99.10
2019-04-07T05:52:06.774Z,98.90
2019-04-07T05:53:46.289Z,98.40
2019-04-07T05:55:23.937Z,97.30
2019-04-07T05:57:01.392Z,96.80
2019-04-07T05:58:38.596Z,96.10
2019-04-07T06:00:16.972Z,95.60
2019-04-07T06:01:58.482Z,95.20
2019-04-07T06:03:31.800Z,95.20
2019-04-07T06:05:08.469Z,94.90
2019-04-07T06:06:45.309Z,94.10
2019-04-07T06:08:29.353Z,93.70
2019-04-07T06:10:00.044Z,94.00
2019-04-07T06:11:36.350Z,94.00
2019-04-07T06:13:14.686Z,94.10
2019-04-07T06:14:51.917Z,94.40
2019-04-07T06:16:28.739Z,94.90
2019-04-07T06:18:05.256Z,94.90
2019-04-07T06:19:42.227Z,95.00
2019-04-07T06:21:18.614Z,95.60
2019-04-07T06:22:54.860Z,94.90
2019-04-07T06:24:33.334Z,94.20
2019-04-07T06:26:11.691Z,94.00
2019-04-07T06:27:47.823Z,93.40
2019-04-07T06:29:26.353Z,92.50
2019-04-07T06:31:03.118Z,93.20
2019-04-07T06:32:39.841Z,91.90
2019-04-07T06:34:17.212Z,92.00
2019-04-07T06:35:55.111Z,90.50
2019-04-07T06:37:31.813Z,91.20
2019-04-07T06:39:09.638Z,90.30
2019-04-07T06:40:45.980Z,90.20
2019-04-07T06:42:22.233Z,90.30
2019-04-07T06:44:09.865Z,90.40
2019-04-07T06:45:52.755Z,90.90
2019-04-07T06:47:37.082Z,90.20
2019-04-07T06:49:15.227Z,90.20
2019-04-07T06:51:02.824Z,90.00
2019-04-07T06:52:56.635Z,90.00
2019-04-07T06:54:50.081Z,90.00
2019-04-07T06:56:32.153Z,90.30
2019-04-07T06:58:23.088Z,91.30
2019-04-07T07:00:03.735Z,91.00
2019-04-07T07:01:42.788Z,91.40
2019-04-07T07:03:21.504Z,91.20
2019-04-07T07:05:08.429Z,91.40
2019-04-07T07:06:58.060Z,91.90
2019-04-07T07:08:54.079Z,91.70
2019-04-07T07:10:39.960Z,91.70
2019-04-07T07:12:28.304Z,91.60
2019-04-07T07:14:14.057Z,91.20
2019-04-07T07:15:54.025Z,90.70
2019-04-07T07:17:48.623Z,91.00
2019-04-07T07:19:31.562Z,90.80
2019-04-07T07:21:24.724Z,90.20
2019-04-07T07:23:02.722Z,90.30
2019-04-07T07:24:39.277Z,90.40
2019-04-07T07:26:16.036Z,90.40
2019-04-07T07:27:52.370Z,90.70
2019-04-07T07:29:28.890Z,90.90
2019-04-07T07:31:05.446Z,90.90
2019-04-07T07:32:42.107Z,90.10
2019-04-07T07:34:18.715Z,87.40
2019-04-07T07:35:55.032Z,89.80
2019-04-07T07:37:31.754Z,90.30
2019-04-07T07:39:11.759Z,88.90
2019-04-07T07:40:49.331Z,90.50
2019-04-07T07:42:26.760Z,90.20
2019-04-07T07:44:03.873Z,91.10
2019-04-07T07:45:44.962Z,91.00
2019-04-07T07:47:20.897Z,90.60
2019-04-07T07:49:00.716Z,90.00
2019-04-07T07:50:38.082Z,89.60
2019-04-07T07:52:16.235Z,89.00
2019-04-07T07:53:50.673Z,89.50
2019-04-07T07:55:27.418Z,88.80
2019-04-07T07:57:03.935Z,87.10
2019-04-07T07:58:40.671Z,85.40
2019-04-07T08:00:17.804Z,84.30
2019-04-07T08:01:54.568Z,83.50
2019-04-07T08:03:31.504Z,85.00
2019-04-07T08:05:09.316Z,85.80
2019-04-07T08:06:45.718Z,86.50
2019-04-07T08:08:22.013Z,86.20
2019-04-07T08:09:58.290Z,86.50
2019-04-07T08:11:34.784Z,87.00
2019-04-07T08:13:11.337Z,88.50
2019-04-07T08:14:51.779Z,89.00
2019-04-07T08:16:29.486Z,88.50
2019-04-07T08:18:07.147Z,85.90
2019-04-07T08:19:44.183Z,86.30
2019-04-07T08:21:20.206Z,85.90
2019-04-07T08:22:56.922Z,84.30
2019-04-07T08:24:33.190Z,84.20
2019-04-07T08:26:09.527Z,84.70
2019-04-07T08:27:45.633Z,85.60
2019-04-07T08:29:22.465Z,85.80
2019-04-07T08:30:58.856Z,85.60
2019-04-07T08:32:35.063Z,86.50
2019-04-07T08:34:12.093Z,87.00
2019-04-07T08:35:49.049Z,88.30
2019-04-07T08:37:25.439Z,89.30
2019-04-07T08:39:02.087Z,89.60
2019-04-07T08:40:39.161Z,90.30
2019-04-07T08:42:18.603Z,88.30
2019-04-07T08:43:56.665Z,88.20
2019-04-07T08:45:32.766Z,87.50
2019-04-07T08:47:12.385Z,88.40
2019-04-07T08:48:49.727Z,88.30
2019-04-07T08:50:27.647Z,87.20
2019-04-07T08:52:08.585Z,86.50
2019-04-07T08:53:44.070Z,86.80
2019-04-07T08:55:21.831Z,86.80
2019-04-07T08:56:59.189Z,85.60
2019-04-07T08:58:37.947Z,83.60
2019-04-07T09:00:17.424Z,84.00
2019-04-07T09:01:54.328Z,81.00
2019-04-07T09:03:30.525Z,81.60
2019-04-07T09:05:08.412Z,79.30
2019-04-07T09:06:45.612Z,75.30
2019-04-07T09:08:22.511Z,75.20
2019-04-07T09:09:58.924Z,75.00
2019-04-07T09:11:35.224Z,76.00
2019-04-07T09:13:12.139Z,74.70
2019-04-07T09:14:49.223Z,71.50
2019-04-07T09:16:30.232Z,76.80
2019-04-07T09:18:18.118Z,77.00
2019-04-07T09:20:13.511Z,77.70
2019-04-07T09:22:08.299Z,77.10
2019-04-07T09:23:44.308Z,80.00
2019-04-07T09:25:24.907Z,79.50
2019-04-07T09:27:06.049Z,78.40
2019-04-07T09:28:46.720Z,78.90
2019-04-07T09:30:40.961Z,76.10
2019-04-07T09:32:17.765Z,73.50
2019-04-07T09:34:12.018Z,75.70
2019-04-07T09:35:59.357Z,73.70
2019-04-07T09:37:37.963Z,76.80
2019-04-07T09:39:50.715Z,78.00
2019-04-07T09:41:29.808Z,78.50
2019-04-07T09:43:24.849Z,81.10
2019-04-07T09:45:03.293Z,80.00
2019-04-07T09:46:58.574Z,79.00
2019-04-07T09:48:39.209Z,78.00
2019-04-07T09:50:15.217Z,75.50
2019-04-07T09:52:02.513Z,73.80
2019-04-07T09:53:48.839Z,74.80
2019-04-07T09:55:30.764Z,74.70
2019-04-07T09:57:25.899Z,74.40
2019-04-07T09:59:20.745Z,72.30
2019-04-07T10:01:09.114Z,71.80
2019-04-07T10:02:58.848Z,71.10
2019-04-07T10:04:45.847Z,72.50
2019-04-07T10:06:30.710Z,76.30
2019-04-07T10:08:19.542Z,72.80
2019-04-07T10:10:10.051Z,71.40
2019-04-07T10:11:41.694Z,69.00
2019-04-07T10:13:21.529Z,69.20
2019-04-07T10:14:59.731Z,69.40
2019-04-07T10:16:56.381Z,65.70
2019-04-07T10:18:42.978Z,64.30
2019-04-07T10:20:33.718Z,67.90
2019-04-07T10:22:27.720Z,67.80
2019-04-07T10:24:08.441Z,68.80
2019-04-07T10:26:02.754Z,68.90
2019-04-07T10:27:45.150Z,68.10
2019-04-07T10:29:26.464Z,67.70
2019-04-07T10:31:04.731Z,68.00
2019-04-07T10:32:48.942Z,68.20
2019-04-07T10:34:29.570Z,68.90
2019-04-07T10:36:26.957Z,69.50
2019-04-07T10:38:23.350Z,71.90
2019-04-07T10:40:21.766Z,72.80
2019-04-07T10:42:05.609Z,73.70
2019-04-07T10:43:52.557Z,74.20
2019-04-07T10:45:36.295Z,74.30
2019-04-07T10:47:12.408Z,74.80
2019-04-07T10:48:51.156Z,75.20
2019-04-07T10:50:32.486Z,75.70
2019-04-07T10:52:10.465Z,75.30
2019-04-07T10:53:51.278Z,75.30
2019-04-07T10:55:40.850Z,75.60
2019-04-07T10:57:16.819Z,75.70
2019-04-07T10:59:08.124Z,75.80
2019-04-07T11:00:49.492Z,75.40
2019-04-07T11:02:27.768Z,75.20
2019-04-07T11:04:21.893Z,75.30
2019-04-07T11:06:16.762Z,75.20
2019-04-07T11:08:01.243Z,74.50
2019-04-07T11:09:42.789Z,74.60
2019-04-07T11:11:22.270Z,74.50
2019-04-07T11:13:14.627Z,74.30
2019-04-07T11:14:59.039Z,74.40
2019-04-07T11:16:54.849Z,73.80
2019-04-07T11:18:45.085Z,73.80
2019-04-07T11:20:22.994Z,73.10
2019-04-07T11:22:16.982Z,72.10
2019-04-07T11:24:04.142Z,70.90
2019-04-07T11:25:46.152Z,70.30
2019-04-07T11:27:40.866Z,70.20
2019-04-07T11:29:35.408Z,70.60
2019-04-07T11:31:14.552Z,70.60
2019-04-07T11:32:53.247Z,70.00
2019-04-07T11:34:33.949Z,69.50
2019-04-07T11:36:21.287Z,67.80
2019-04-07T11:38:10.969Z,66.80
2019-04-07T11:39:48.701Z,66.60
2019-04-07T11:41:30.702Z,66.40
2019-04-07T11:43:13.075Z,67.10
2019-04-07T11:44:59.730Z,67.50
2019-04-07T11:46:40.872Z,68.00
2019-04-07T11:48:22.030Z,68.90
2019-04-07T11:50:00.296Z,68.30
2019-04-07T11:51:39.079Z,67.60
2019-04-07T11:53:15.665Z,67.20
2019-04-07T11:55:01.996Z,67.00
2019-04-07T11:56:49.199Z,67.20
2019-04-07T11:58:34.639Z,68.10
2019-04-07T12:00:14.093Z,68.60
2019-04-07T12:01:55.333Z,68.70
2019-04-07T12:03:39.846Z,66.70
2019-04-07T12:05:19.063Z,68.70
2019-04-07T12:07:22.030Z,71.70
2019-04-07T12:09:09.156Z,72.70
2019-04-07T12:11:05.323Z,73.40
2019-04-07T12:12:53.821Z,73.10
2019-04-07T12:14:34.684Z,74.40
2019-04-07T12:16:18.624Z,73.70
2019-04-07T12:17:58.072Z,74.10
2019-04-07T12:19:41.849Z,73.50
2019-04-07T12:21:26.766Z,72.80
2019-04-07T12:23:24.297Z,74.40
2019-04-07T12:25:12.896Z,74.00
2019-04-07T12:27:08.951Z,74.80
2019-04-07T12:28:56.070Z,74.30
2019-04-07T12:30:37.917Z,75.90
2019-04-07T12:32:14.935Z,74.80
2019-04-07T12:34:11.999Z,74.30
2019-04-07T12:36:07.220Z,74.60
2019-04-07T12:37:58.337Z,73.80
2019-04-07T12:39:50.146Z,74.70
2019-04-07T12:41:37.936Z,73.40
2019-04-07T12:43:32.791Z,72.40
2019-04-07T12:45:16.922Z,71.60
2019-04-07T12:47:11.336Z,72.10
2019-04-07T12:48:56.521Z,70.90
2019-04-07T12:50:51.210Z,70.20
2019-04-07T12:52:45.246Z,69.60
2019-04-07T12:54:26.743Z,69.90
2019-04-07T12:56:04.951Z,70.20
2019-04-07T12:57:43.560Z,69.20
2019-04-07T12:59:21.355Z,68.60
2019-04-07T13:01:12.115Z,68.70
2019-04-07T13:02:55.130Z,67.60
2019-04-07T13:04:35.328Z,67.30
2019-04-07T13:06:24.171Z,66.40
2019-04-07T13:08:14.544Z,65.70
2019-04-07T13:09:51.709Z,66.00
2019-04-07T13:11:37.471Z,64.90
2019-04-07T13:13:12.407Z,64.60
2019-04-07T13:15:00.016Z,63.30
2019-04-07T13:17:08.819Z,61.20
2019-04-07T13:18:48.428Z,61.40
2019-04-07T13:20:33.424Z,61.70
2019-04-07T13:22:15.046Z,63.30
2019-04-07T13:23:59.334Z,64.20
2019-04-07T13:25:37.473Z,64.00
2019-04-07T13:27:15.635Z,64.70
2019-04-07T13:28:58.698Z,64.80
2019-04-07T13:30:37.397Z,64.20
2019-04-07T13:32:15.467Z,63.60
2019-04-07T13:33:59.760Z,63.80
2019-04-07T13:35:41.618Z,62.30
2019-04-07T13:37:22.215Z,63.10
2019-04-07T13:39:12.212Z,64.00
2019-04-07T13:40:50.105Z,64.30
2019-04-07T13:42:29.315Z,64.70
2019-04-07T13:44:24.826Z,66.00
2019-04-07T13:46:17.105Z,66.30
2019-04-07T13:48:05.536Z,67.10
2019-04-07T13:50:02.511Z,66.30
2019-04-07T13:51:44.807Z,67.00
2019-04-07T13:53:27.016Z,67.40
2019-04-07T13:55:20.333Z,67.20
2019-04-07T13:57:15.513Z,66.20
2019-04-07T13:58:54.313Z,66.50
2019-04-07T14:00:48.352Z,65.70
2019-04-07T14:02:32.386Z,66.00
2019-04-07T14:04:21.402Z,65.10
2019-04-07T14:06:14.598Z,64.10
2019-04-07T14:07:51.562Z,63.80
2019-04-07T14:09:47.476Z,63.00
2019-04-07T14:11:58.179Z,61.60
2019-04-07T14:13:22.075Z,59.60
2019-04-07T14:15:00.217Z,58.80
2019-04-07T14:16:42.309Z,59.30
2019-04-07T14:18:19.116Z,60.50
2019-04-07T14:20:05.009Z,61.20
2019-04-07T14:21:52.415Z,61.50
2019-04-07T14:23:39.263Z,61.00
2019-04-07T14:25:34.545Z,61.00
2019-04-07T14:27:10.795Z,60.90
2019-04-07T14:29:04.164Z,59.60
2019-04-07T14:30:48.820Z,59.40
2019-04-07T14:32:33.771Z,61.30
2019-04-07T14:34:21.794Z,60.50
2019-04-07T14:36:02.913Z,60.30
2019-04-07T14:37:47.345Z,59.90
2019-04-07T14:39:30.298Z,61.40
2019-04-07T14:41:11.719Z,62.00
2019-04-07T14:42:59.439Z,64.00
2019-04-07T14:44:41.203Z,64.30
2019-04-07T14:46:35.996Z,63.50
2019-04-07T14:48:14.020Z,63.00
2019-04-07T14:49:53.053Z,65.10
2019-04-07T14:51:32.873Z,64.20
2019-04-07T14:53:27.590Z,65.30
2019-04-07T14:55:21.466Z,66.10
2019-04-07T14:57:03.246Z,66.00
2019-04-07T14:58:51.097Z,65.90
2019-04-07T15:00:35.353Z,66.60
2019-04-07T15:02:12.568Z,66.30
2019-04-07T15:03:48.903Z,66.80
2019-04-07T15:05:27.654Z,66.20
2019-04-07T15:07:08.019Z,66.60
2019-04-07T15:08:46.269Z,65.90
2019-04-07T15:10:24.488Z,64.30
2019-04-07T15:12:13.612Z,63.40
2019-04-07T15:13:40.432Z,63.60
2019-04-07T15:15:17.097Z,64.70
2019-04-07T15:16:55.736Z,63.90
2019-04-07T15:18:32.075Z,64.80
2019-04-07T15:20:11.703Z,64.10
2019-04-07T15:21:48.843Z,63.70
2019-04-07T15:23:25.258Z,64.10
2019-04-07T15:25:01.629Z,64.00
2019-04-07T15:26:38.003Z,64.10
2019-04-07T15:28:14.322Z,64.50
2019-04-07T15:29:52.009Z,64.50
2019-04-07T15:31:28.412Z,64.00
2019-04-07T15:33:05.961Z,64.70
2019-04-07T15:34:43.386Z,65.00
2019-04-07T15:36:20.034Z,65.60
2019-04-07T15:37:57.094Z,65.50
2019-04-07T15:39:33.690Z,64.70
2019-04-07T15:41:15.185Z,63.30
2019-04-07T15:42:50.771Z,63.10
2019-04-07T15:44:26.033Z,62.60
2019-04-07T15:46:03.399Z,63.90
2019-04-07T15:47:40.426Z,65.10
2019-04-07T15:49:16.655Z,65.70
2019-04-07T15:50:54.178Z,65.20
2019-04-07T15:52:31.503Z,65.00
2019-04-07T15:54:09.087Z,64.30
2019-04-07T15:55:53.472Z,64.80
2019-04-07T15:57:24.505Z,65.80
2019-04-07T15:59:02.211Z,65.90
2019-04-07T16:00:38.823Z,66.50
2019-04-07T16:02:16.039Z,67.00
2019-04-07T16:03:54.654Z,66.30
2019-04-07T16:05:38.033Z,66.30
2019-04-07T16:07:09.105Z,66.50
2019-04-07T16:08:45.777Z,65.80
2019-04-07T16:10:23.935Z,64.70
2019-04-07T16:12:03.776Z,64.90
2019-04-07T16:13:40.249Z,65.30
2019-04-07T16:15:18.168Z,65.60
2019-04-07T16:16:54.894Z,66.00
2019-04-07T16:18:31.957Z,66.00
2019-04-07T16:20:20.663Z,67.00
2019-04-07T16:21:52.730Z,66.80
2019-04-07T16:23:29.445Z,66.80
2019-04-07T16:25:10.088Z,67.00
2019-04-07T16:26:46.604Z,67.00
2019-04-07T16:28:23.179Z,67.60
2019-04-07T16:30:01.251Z,67.90
2019-04-07T16:31:37.647Z,68.90
2019-04-07T16:33:14.099Z,69.50
2019-04-07T16:34:50.066Z,70.30
2019-04-07T16:36:26.658Z,71.00
2019-04-07T16:38:03.171Z,71.90
2019-04-07T16:39:39.459Z,72.50
2019-04-07T16:41:16.680Z,73.50
2019-04-07T16:43:04.800Z,74.00
2019-04-07T16:44:31.813Z,75.00
2019-04-07T16:46:08.850Z,75.80
2019-04-07T16:47:45.547Z,76.40
2019-04-07T16:49:22.441Z,75.80
2019-04-07T16:51:00.714Z,76.20
2019-04-07T16:52:36.558Z,75.20
2019-04-07T16:54:13.297Z,75.00
2019-04-07T16:55:54.877Z,73.90
2019-04-07T16:57:31.081Z,74.60
2019-04-07T16:59:08.402Z,74.00
2019-04-07T17:00:45.206Z,74.10
2019-04-07T17:02:22.154Z,74.50
2019-04-07T17:03:59.380Z,74.50
2019-04-07T17:05:36.434Z,74.70
2019-04-07T17:07:15.661Z,74.70
2019-04-07T17:08:51.574Z,75.40
2019-04-07T17:10:32.682Z,76.80
2019-04-07T17:12:09.478Z,77.40
2019-04-07T17:13:44.959Z,78.50
2019-04-07T17:15:21.294Z,79.20
2019-04-07T17:16:57.987Z,79.70
2019-04-07T17:18:43.031Z,80.10
2019-04-07T17:20:20.056Z,80.10
2019-04-07T17:21:56.427Z,80.30
2019-04-07T17:23:33.518Z,80.60
2019-04-07T17:25:11.127Z,80.90
2019-04-07T17:26:47.802Z,81.10
2019-04-07T17:28:24.063Z,81.70
2019-04-07T17:30:00.507Z,81.70
2019-04-07T17:31:38.131Z,82.00
2019-04-07T17:33:14.394Z,82.10
2019-04-07T17:34:50.827Z,82.60
2019-04-07T17:36:28.177Z,82.90
2019-04-07T17:38:06.908Z,83.20
2019-04-07T17:39:45.085Z,83.80
2019-04-07T17:41:21.633Z,83.90
2019-04-07T17:42:59.516Z,84.40
2019-04-07T17:44:35.567Z,84.90
2019-04-07T17:46:26.183Z,85.20
2019-04-07T17:48:14.564Z,85.40
2019-04-07T17:50:08.744Z,85.70
2019-04-07T17:51:47.454Z,86.00
2019-04-07T17:53:25.418Z,86.30
2019-04-07T17:55:18.792Z,86.70
2019-04-07T17:57:04.440Z,87.20
2019-04-07T17:58:52.310Z,87.70
2019-04-07T18:00:49.206Z,88.40
2019-04-07T18:02:28.971Z,88.60
2019-04-07T18:04:08.195Z,88.70
2019-04-07T18:05:49.739Z,89.10
2019-04-07T18:07:39.768Z,89.30
2019-04-07T18:09:33.099Z,89.40
2019-04-07T18:11:11.856Z,89.60
2019-04-07T18:12:55.593Z,89.70
2019-04-07T18:14:49.315Z,90.00
2019-04-07T18:16:44.657Z,90.10
2019-04-07T18:18:24.040Z,90.10
2019-04-07T18:20:08.308Z,90.30
2019-04-07T18:21:51.978Z,90.30
2019-04-07T18:23:27.781Z,90.40
2019-04-07T18:27:17.125Z,90.60
2019-04-07T18:28:58.519Z,90.70
2019-04-07T18:30:39.711Z,90.90
2019-04-07T18:32:27.468Z,91.00
2019-04-07T18:34:09.973Z,91.10
2019-04-07T18:36:06.997Z,91.20
2019-04-07T18:37:52.836Z,91.20
2019-04-07T18:39:30.980Z,91.20
2019-04-07T18:41:10.604Z,91.20
2019-04-07T18:42:47.957Z,91.50
2019-04-07T18:44:35.322Z,91.30
2019-04-07T18:46:09.960Z,91.30
2019-04-07T18:47:54.833Z,91.40
2019-04-07T18:49:32.939Z,91.50
2019-04-07T18:51:16.013Z,91.60
2019-04-07T18:53:00.243Z,91.60
2019-04-07T18:54:46.238Z,91.70
2019-04-07T18:56:27.162Z,91.90
2019-04-07T18:58:24.556Z,92.10
2019-04-07T19:00:13.207Z,92.20
2019-04-07T19:02:01.363Z,92.30
2019-04-07T19:03:56.055Z,92.50
2019-04-07T19:05:52.051Z,92.70
2019-04-07T19:07:48.557Z,92.70
2019-04-07T19:09:35.727Z,92.90
2019-04-07T19:11:30.856Z,92.80
2019-04-07T19:13:24.717Z,93.10
2019-04-07T19:15:10.541Z,93.10
2019-04-07T19:17:02.963Z,93.20
2019-04-07T19:18:57.492Z,93.20
2019-04-07T19:20:43.048Z,93.20
2019-04-07T19:22:21.190Z,93.30
2019-04-07T19:23:59.656Z,93.30
2019-04-07T19:25:41.960Z,93.20
2019-04-07T19:27:35.332Z,93.00
2019-04-07T19:29:14.062Z,92.90
2019-04-07T19:30:58.058Z,93.10
2019-04-07T19:32:41.624Z,93.30
2019-04-07T19:34:35.794Z,93.30
2019-04-07T19:36:18.045Z,93.20
2019-04-07T19:38:02.810Z,93.20
2019-04-07T19:39:38.934Z,93.00
2019-04-07T19:41:19.985Z,92.50
2019-04-07T19:43:10.706Z,92.50
2019-04-07T19:44:48.964Z,92.50
2019-04-07T19:46:37.226Z,92.50
2019-04-07T19:48:13.514Z,92.50
2019-04-07T19:50:08.845Z,92.70
2019-04-07T19:51:48.223Z,93.20
2019-04-07T19:53:27.345Z,93.40
2019-04-07T19:55:12.551Z,93.40
2019-04-07T19:56:53.246Z,93.50
2019-04-07T19:58:32.656Z,93.90
2019-04-07T20:00:15.348Z,94.20
2019-04-07T20:01:58.349Z,94.40
2019-04-07T20:03:39.844Z,94.50
2019-04-07T20:05:28.219Z,94.60
2019-04-07T20:07:07.005Z,95.00
2019-04-07T20:08:45.842Z,94.90
2019-04-07T20:10:36.118Z,94.70
2019-04-07T20:12:34.671Z,94.70
2019-04-07T20:14:26.329Z,94.60
2019-04-07T20:16:04.599Z,94.50
2019-04-07T20:19:53.573Z,94.50
2019-04-07T20:21:43.836Z,94.30
2019-04-07T20:23:21.253Z,94.40
2019-04-07T20:25:17.500Z,94.40
2019-04-07T20:26:56.760Z,94.50
2019-04-07T20:28:41.193Z,94.40
2019-04-07T20:30:21.212Z,94.20
2019-04-07T20:32:00.525Z,94.00
2019-04-07T20:33:45.859Z,94.10
2019-04-07T20:35:26.222Z,94.00
2019-04-07T20:37:07.228Z,94.00
2019-04-07T20:38:58.529Z,94.00
2019-04-07T20:40:53.609Z,93.90
2019-04-07T20:42:37.606Z,93.80
2019-04-07T20:44:29.609Z,94.00
2019-04-07T20:46:05.202Z,93.70
2019-04-07T20:47:46.593Z,93.70
2019-04-07T20:49:42.458Z,93.60
2019-04-07T20:51:22.148Z,93.60
2019-04-07T20:53:11.716Z,93.60
2019-04-07T20:54:44.368Z,93.40
2019-04-07T20:56:37.329Z,93.30
2019-04-07T20:58:22.795Z,93.10
2019-04-07T21:00:02.309Z,93.00
2019-04-07T21:01:42.943Z,92.90
2019-04-07T21:03:36.090Z,92.90
2019-04-07T21:05:14.942Z,92.80
2019-04-07T21:06:59.756Z,92.70
2019-04-07T21:08:46.405Z,92.70
2019-04-07T21:10:30.725Z,92.60
2019-04-07T21:12:23.975Z,92.50
2019-04-07T21:14:20.842Z,92.50
2019-04-07T21:15:59.453Z,92.50
2019-04-07T21:17:37.580Z,92.50
2019-04-07T21:19:21.597Z,92.50
2019-04-07T21:21:02.092Z,92.50
2019-04-07T21:22:44.291Z,92.50
2019-04-07T21:24:35.100Z,92.50
2019-04-07T21:26:13.522Z,92.60
2019-04-07T21:27:55.709Z,92.40
2019-04-07T21:29:41.398Z,92.30
2019-04-07T21:31:20.422Z,92.40
2019-04-07T21:33:05.022Z,92.40
2019-04-07T21:34:46.108Z,92.60
2019-04-07T21:36:27.971Z,92.80
2019-04-07T21:38:07.070Z,92.90
2019-04-07T21:39:45.163Z,93.00
2019-04-07T21:41:23.249Z,93.00
2019-04-07T21:43:14.405Z,93.10
2019-04-07T21:45:10.447Z,93.10
2019-04-07T21:47:04.274Z,93.50
2019-04-07T21:48:46.272Z,93.40
2019-04-07T21:50:33.254Z,93.40
2019-04-07T21:52:21.047Z,93.30
2019-04-07T21:54:02.678Z,93.20
2019-04-07T21:55:47.688Z,93.20
2019-04-07T21:57:32.271Z,93.50